sensor_id;sensor_type;location;lat;lon;timestamp;P1;durP1;ratioP1;P2;durP2;ratioP2
20365;SDS011;10341;49.894;8.822;2023-10-08T00:04:56;9.65;;;2.90;;
20365;SDS011;10341;49.894;8.822;2023-10-08T00:10:18;4.40;;;2.38;;
20365;SDS011;10341;49.894;8.822;2023-10-08T00:15:39;5.10;;;2.55;;
20365;SDS011;10341;49.894;8.822;2023-10-08T00:21:14;5.97;;;2.95;;
20365;SDS011;10341;49.894;8.822;2023-10-08T00:31:58;5.03;;;2.70;;
20365;SDS011;10341;49.894;8.822;2023-10-08T00:37:18;6.10;;;2.88;;
20365;SDS011;10341;49.894;8.822;2023-10-08T00:42:42;5.68;;;2.97;;
20365;SDS011;10341;49.894;8.822;2023-10-08T00:48:04;7.00;;;2.55;;
20365;SDS011;10341;49.894;8.822;2023-10-08T00:53:25;5.50;;;2.78;;
20365;SDS011;10341;49.894;8.822;2023-10-08T00:58:45;4.80;;;2.60;;
20365;SDS011;10341;49.894;8.822;2023-10-08T01:04:16;5.43;;;2.90;;
20365;SDS011;10341;49.894;8.822;2023-10-08T01:09:42;5.15;;;2.70;;
20365;SDS011;10341;49.894;8.822;2023-10-08T01:15:06;6.35;;;3.10;;
20365;SDS011;10341;49.894;8.822;2023-10-08T01:20:34;6.35;;;2.78;;
20365;SDS011;10341;49.894;8.822;2023-10-08T01:25:57;6.20;;;3.08;;
20365;SDS011;10341;49.894;8.822;2023-10-08T01:31:28;5.30;;;2.90;;
20365;SDS011;10341;49.894;8.822;2023-10-08T01:36:48;6.07;;;2.53;;
20365;SDS011;10341;49.894;8.822;2023-10-08T01:42:07;7.97;;;3.05;;
20365;SDS011;10341;49.894;8.822;2023-10-08T01:47:35;4.78;;;2.60;;
20365;SDS011;10341;49.894;8.822;2023-10-08T01:52:55;5.15;;;2.83;;
20365;SDS011;10341;49.894;8.822;2023-10-08T01:58:15;5.40;;;2.70;;
20365;SDS011;10341;49.894;8.822;2023-10-08T02:03:35;4.32;;;2.92;;
20365;SDS011;10341;49.894;8.822;2023-10-08T02:08:56;7.03;;;2.95;;
20365;SDS011;10341;49.894;8.822;2023-10-08T02:14:17;5.18;;;2.75;;
20365;SDS011;10341;49.894;8.822;2023-10-08T02:24:56;7.47;;;2.90;;
20365;SDS011;10341;49.894;8.822;2023-10-08T02:30:20;7.97;;;2.78;;
20365;SDS011;10341;49.894;8.822;2023-10-08T02:35:43;4.82;;;2.83;;
20365;SDS011;10341;49.894;8.822;2023-10-08T02:41:04;8.32;;;3.00;;
20365;SDS011;10341;49.894;8.822;2023-10-08T02:46:26;7.35;;;2.78;;
20365;SDS011;10341;49.894;8.822;2023-10-08T02:51:49;4.80;;;2.75;;
20365;SDS011;10341;49.894;8.822;2023-10-08T02:57:10;5.88;;;3.10;;
20365;SDS011;10341;49.894;8.822;2023-10-08T03:02:35;4.75;;;2.65;;
20365;SDS011;10341;49.894;8.822;2023-10-08T03:07:58;4.45;;;2.40;;
20365;SDS011;10341;49.894;8.822;2023-10-08T03:13:19;5.80;;;2.78;;
20365;SDS011;10341;49.894;8.822;2023-10-08T03:18:38;5.85;;;2.60;;
20365;SDS011;10341;49.894;8.822;2023-10-08T03:24:03;5.13;;;2.70;;
20365;SDS011;10341;49.894;8.822;2023-10-08T03:29:31;5.32;;;3.00;;
20365;SDS011;10341;49.894;8.822;2023-10-08T03:34:51;4.60;;;2.63;;
20365;SDS011;10341;49.894;8.822;2023-10-08T03:40:13;3.75;;;2.38;;
20365;SDS011;10341;49.894;8.822;2023-10-08T03:45:50;5.28;;;3.00;;
20365;SDS011;10341;49.894;8.822;2023-10-08T03:51:12;4.45;;;2.65;;
20365;SDS011;10341;49.894;8.822;2023-10-08T03:56:33;8.23;;;3.00;;
20365;SDS011;10341;49.894;8.822;2023-10-08T04:01:55;5.57;;;3.00;;
20365;SDS011;10341;49.894;8.822;2023-10-08T04:07:28;5.72;;;3.22;;
20365;SDS011;10341;49.894;8.822;2023-10-08T04:13:13;6.10;;;3.17;;
20365;SDS011;10341;49.894;8.822;2023-10-08T04:18:35;7.00;;;2.72;;
20365;SDS011;10341;49.894;8.822;2023-10-08T04:23:59;4.82;;;2.97;;
20365;SDS011;10341;49.894;8.822;2023-10-08T04:29:22;6.97;;;2.95;;
20365;SDS011;10341;49.894;8.822;2023-10-08T04:34:42;5.82;;;3.03;;
20365;SDS011;10341;49.894;8.822;2023-10-08T04:40:05;5.28;;;2.85;;
20365;SDS011;10341;49.894;8.822;2023-10-08T04:45:34;5.65;;;2.90;;
20365;SDS011;10341;49.894;8.822;2023-10-08T04:50:53;4.53;;;2.92;;
20365;SDS011;10341;49.894;8.822;2023-10-08T04:56:18;7.82;;;3.35;;
20365;SDS011;10341;49.894;8.822;2023-10-08T05:01:38;9.15;;;3.47;;
20365;SDS011;10341;49.894;8.822;2023-10-08T05:07:06;5.22;;;2.80;;
20365;SDS011;10341;49.894;8.822;2023-10-08T05:12:59;6.28;;;2.80;;
20365;SDS011;10341;49.894;8.822;2023-10-08T05:18:24;7.22;;;3.25;;
20365;SDS011;10341;49.894;8.822;2023-10-08T05:23:56;6.43;;;3.28;;
20365;SDS011;10341;49.894;8.822;2023-10-08T05:29:28;6.22;;;3.03;;
20365;SDS011;10341;49.894;8.822;2023-10-08T05:35:06;4.70;;;2.90;;
20365;SDS011;10341;49.894;8.822;2023-10-08T05:40:44;6.03;;;3.00;;
20365;SDS011;10341;49.894;8.822;2023-10-08T05:46:27;6.05;;;3.00;;
20365;SDS011;10341;49.894;8.822;2023-10-08T05:51:46;6.40;;;3.10;;
20365;SDS011;10341;49.894;8.822;2023-10-08T05:57:06;7.32;;;3.30;;
20365;SDS011;10341;49.894;8.822;2023-10-08T06:02:29;5.43;;;2.80;;
20365;SDS011;10341;49.894;8.822;2023-10-08T06:07:53;6.88;;;3.40;;
20365;SDS011;10341;49.894;8.822;2023-10-08T06:13:13;7.57;;;3.38;;
20365;SDS011;10341;49.894;8.822;2023-10-08T06:18:56;6.50;;;2.90;;
20365;SDS011;10341;49.894;8.822;2023-10-08T06:24:15;4.68;;;2.83;;
20365;SDS011;10341;49.894;8.822;2023-10-08T06:29:36;5.97;;;2.58;;
20365;SDS011;10341;49.894;8.822;2023-10-08T06:35:03;4.72;;;2.60;;
20365;SDS011;10341;49.894;8.822;2023-10-08T06:40:24;5.22;;;2.50;;
20365;SDS011;10341;49.894;8.822;2023-10-08T06:45:55;5.97;;;3.08;;
20365;SDS011;10341;49.894;8.822;2023-10-08T06:51:17;5.25;;;3.03;;
20365;SDS011;10341;49.894;8.822;2023-10-08T06:56:36;4.88;;;2.67;;
20365;SDS011;10341;49.894;8.822;2023-10-08T07:01:56;5.78;;;3.38;;
20365;SDS011;10341;49.894;8.822;2023-10-08T07:07:17;6.53;;;2.97;;
20365;SDS011;10341;49.894;8.822;2023-10-08T07:12:37;5.03;;;2.53;;
20365;SDS011;10341;49.894;8.822;2023-10-08T07:17:58;5.18;;;3.10;;
20365;SDS011;10341;49.894;8.822;2023-10-08T07:23:27;5.97;;;2.83;;
20365;SDS011;10341;49.894;8.822;2023-10-08T07:28:53;5.93;;;2.53;;
20365;SDS011;10341;49.894;8.822;2023-10-08T07:34:12;4.15;;;2.60;;
20365;SDS011;10341;49.894;8.822;2023-10-08T07:39:37;5.07;;;2.88;;
20365;SDS011;10341;49.894;8.822;2023-10-08T07:45:05;5.03;;;2.70;;
20365;SDS011;10341;49.894;8.822;2023-10-08T07:50:25;6.90;;;3.45;;
20365;SDS011;10341;49.894;8.822;2023-10-08T07:55:48;5.68;;;2.97;;
20365;SDS011;10341;49.894;8.822;2023-10-08T08:01:07;4.77;;;3.00;;
20365;SDS011;10341;49.894;8.822;2023-10-08T08:11:49;5.93;;;3.08;;
20365;SDS011;10341;49.894;8.822;2023-10-08T08:17:08;4.70;;;2.60;;
20365;SDS011;10341;49.894;8.822;2023-10-08T08:22:33;6.03;;;2.85;;
20365;SDS011;10341;49.894;8.822;2023-10-08T08:27:59;6.50;;;2.83;;
20365;SDS011;10341;49.894;8.822;2023-10-08T08:33:18;5.18;;;2.92;;
20365;SDS011;10341;49.894;8.822;2023-10-08T08:38:41;7.82;;;3.00;;
20365;SDS011;10341;49.894;8.822;2023-10-08T08:44:02;7.35;;;2.92;;
20365;SDS011;10341;49.894;8.822;2023-10-08T08:49:25;10.50;;;3.40;;
20365;SDS011;10341;49.894;8.822;2023-10-08T08:54:47;5.15;;;2.70;;
20365;SDS011;10341;49.894;8.822;2023-10-08T09:00:06;5.15;;;3.30;;
20365;SDS011;10341;49.894;8.822;2023-10-08T09:05:29;5.45;;;2.45;;
20365;SDS011;10341;49.894;8.822;2023-10-08T09:10:57;6.43;;;3.40;;
20365;SDS011;10341;49.894;8.822;2023-10-08T09:16:19;4.63;;;2.80;;
20365;SDS011;10341;49.894;8.822;2023-10-08T09:27:08;5.75;;;3.33;;
20365;SDS011;10341;49.894;8.822;2023-10-08T09:32:32;4.55;;;2.40;;
20365;SDS011;10341;49.894;8.822;2023-10-08T09:37:51;5.22;;;2.67;;
20365;SDS011;10341;49.894;8.822;2023-10-08T09:43:13;4.90;;;2.63;;
20365;SDS011;10341;49.894;8.822;2023-10-08T09:48:38;7.30;;;2.95;;
20365;SDS011;10341;49.894;8.822;2023-10-08T09:54:10;6.88;;;2.70;;
20365;SDS011;10341;49.894;8.822;2023-10-08T09:59:34;4.57;;;2.80;;
20365;SDS011;10341;49.894;8.822;2023-10-08T10:04:54;8.02;;;3.13;;
20365;SDS011;10341;49.894;8.822;2023-10-08T10:10:30;5.95;;;2.85;;
20365;SDS011;10341;49.894;8.822;2023-10-08T10:15:52;7.70;;;3.25;;
20365;SDS011;10341;49.894;8.822;2023-10-08T10:26:34;5.90;;;2.70;;
20365;SDS011;10341;49.894;8.822;2023-10-08T10:31:54;5.53;;;2.80;;
20365;SDS011;10341;49.894;8.822;2023-10-08T10:37:15;6.82;;;3.35;;
20365;SDS011;10341;49.894;8.822;2023-10-08T10:42:38;9.20;;;2.92;;
20365;SDS011;10341;49.894;8.822;2023-10-08T10:48:02;6.95;;;3.00;;
20365;SDS011;10341;49.894;8.822;2023-10-08T10:53:51;5.53;;;2.78;;
20365;SDS011;10341;49.894;8.822;2023-10-08T10:59:26;5.70;;;3.00;;
20365;SDS011;10341;49.894;8.822;2023-10-08T11:04:47;6.82;;;3.17;;
20365;SDS011;10341;49.894;8.822;2023-10-08T11:10:06;3.65;;;2.55;;
20365;SDS011;10341;49.894;8.822;2023-10-08T11:15:29;9.10;;;3.20;;
20365;SDS011;10341;49.894;8.822;2023-10-08T11:21:05;4.65;;;2.95;;
20365;SDS011;10341;49.894;8.822;2023-10-08T11:26:37;5.10;;;2.67;;
20365;SDS011;10341;49.894;8.822;2023-10-08T11:32:13;5.60;;;2.80;;
20365;SDS011;10341;49.894;8.822;2023-10-08T11:37:36;8.40;;;3.30;;
20365;SDS011;10341;49.894;8.822;2023-10-08T11:42:56;5.63;;;2.95;;
20365;SDS011;10341;49.894;8.822;2023-10-08T11:48:17;6.05;;;3.33;;
20365;SDS011;10341;49.894;8.822;2023-10-08T11:53:44;8.00;;;3.08;;
20365;SDS011;10341;49.894;8.822;2023-10-08T11:59:04;9.25;;;3.30;;
20365;SDS011;10341;49.894;8.822;2023-10-08T12:04:27;5.95;;;3.10;;
20365;SDS011;10341;49.894;8.822;2023-10-08T12:09:48;6.10;;;3.15;;
20365;SDS011;10341;49.894;8.822;2023-10-08T12:15:07;6.65;;;3.50;;
20365;SDS011;10341;49.894;8.822;2023-10-08T12:20:28;7.68;;;3.20;;
20365;SDS011;10341;49.894;8.822;2023-10-08T12:25:53;5.63;;;3.05;;
20365;SDS011;10341;49.894;8.822;2023-10-08T12:31:15;6.32;;;3.03;;
20365;SDS011;10341;49.894;8.822;2023-10-08T12:36:35;6.50;;;3.28;;
20365;SDS011;10341;49.894;8.822;2023-10-08T12:41:55;6.63;;;2.63;;
20365;SDS011;10341;49.894;8.822;2023-10-08T12:47:16;6.80;;;3.35;;
20365;SDS011;10341;49.894;8.822;2023-10-08T12:52:34;7.43;;;3.45;;
20365;SDS011;10341;49.894;8.822;2023-10-08T12:57:54;8.05;;;3.55;;
20365;SDS011;10341;49.894;8.822;2023-10-08T13:03:25;6.82;;;3.38;;
20365;SDS011;10341;49.894;8.822;2023-10-08T13:08:44;8.43;;;3.28;;
20365;SDS011;10341;49.894;8.822;2023-10-08T13:14:04;7.65;;;3.30;;
20365;SDS011;10341;49.894;8.822;2023-10-08T13:19:24;6.05;;;3.08;;
20365;SDS011;10341;49.894;8.822;2023-10-08T13:24:45;8.82;;;3.70;;
20365;SDS011;10341;49.894;8.822;2023-10-08T13:30:06;6.82;;;3.22;;
20365;SDS011;10341;49.894;8.822;2023-10-08T13:35:27;5.05;;;2.80;;
20365;SDS011;10341;49.894;8.822;2023-10-08T13:40:47;5.03;;;3.33;;
20365;SDS011;10341;49.894;8.822;2023-10-08T13:46:22;8.80;;;3.53;;
20365;SDS011;10341;49.894;8.822;2023-10-08T13:57:03;6.85;;;3.30;;
20365;SDS011;10341;49.894;8.822;2023-10-08T14:02:22;6.13;;;3.22;;
20365;SDS011;10341;49.894;8.822;2023-10-08T14:07:43;9.73;;;3.67;;
20365;SDS011;10341;49.894;8.822;2023-10-08T14:13:03;7.90;;;3.28;;
20365;SDS011;10341;49.894;8.822;2023-10-08T14:18:23;11.48;;;4.60;;
20365;SDS011;10341;49.894;8.822;2023-10-08T14:23:48;7.20;;;3.38;;
20365;SDS011;10341;49.894;8.822;2023-10-08T14:29:07;7.45;;;3.45;;
20365;SDS011;10341;49.894;8.822;2023-10-08T14:34:29;8.63;;;3.47;;
20365;SDS011;10341;49.894;8.822;2023-10-08T14:40:07;7.38;;;3.35;;
20365;SDS011;10341;49.894;8.822;2023-10-08T14:45:50;5.38;;;3.40;;
20365;SDS011;10341;49.894;8.822;2023-10-08T14:51:11;5.65;;;3.47;;
20365;SDS011;10341;49.894;8.822;2023-10-08T14:56:37;7.38;;;3.47;;
20365;SDS011;10341;49.894;8.822;2023-10-08T15:01:57;8.43;;;3.70;;
20365;SDS011;10341;49.894;8.822;2023-10-08T15:07:17;7.00;;;4.07;;
20365;SDS011;10341;49.894;8.822;2023-10-08T15:12:36;6.93;;;3.60;;
20365;SDS011;10341;49.894;8.822;2023-10-08T15:17:56;7.43;;;5.22;;
20365;SDS011;10341;49.894;8.822;2023-10-08T15:23:15;11.13;;;7.47;;
20365;SDS011;10341;49.894;8.822;2023-10-08T15:28:35;15.40;;;7.93;;
20365;SDS011;10341;49.894;8.822;2023-10-08T15:33:55;11.98;;;4.95;;
20365;SDS011;10341;49.894;8.822;2023-10-08T15:39:14;7.83;;;3.50;;
20365;SDS011;10341;49.894;8.822;2023-10-08T15:44:41;6.85;;;3.33;;
20365;SDS011;10341;49.894;8.822;2023-10-08T15:55:20;6.47;;;3.30;;
20365;SDS011;10341;49.894;8.822;2023-10-08T16:05:59;4.72;;;3.00;;
20365;SDS011;10341;49.894;8.822;2023-10-08T16:11:19;8.13;;;4.32;;
20365;SDS011;10341;49.894;8.822;2023-10-08T16:16:38;11.37;;;7.07;;
20365;SDS011;10341;49.894;8.822;2023-10-08T16:21:58;14.27;;;9.27;;
20365;SDS011;10341;49.894;8.822;2023-10-08T16:27:17;9.80;;;5.70;;
20365;SDS011;10341;49.894;8.822;2023-10-08T16:37:56;9.73;;;4.05;;
20365;SDS011;10341;49.894;8.822;2023-10-08T16:43:16;11.00;;;6.50;;
20365;SDS011;10341;49.894;8.822;2023-10-08T16:48:35;10.10;;;5.67;;
20365;SDS011;10341;49.894;8.822;2023-10-08T16:53:55;14.70;;;7.90;;
20365;SDS011;10341;49.894;8.822;2023-10-08T16:59:15;12.15;;;8.63;;
20365;SDS011;10341;49.894;8.822;2023-10-08T17:04:34;8.70;;;6.53;;
20365;SDS011;10341;49.894;8.822;2023-10-08T17:09:53;12.68;;;8.50;;
20365;SDS011;10341;49.894;8.822;2023-10-08T17:15:13;11.00;;;5.32;;
20365;SDS011;10341;49.894;8.822;2023-10-08T17:20:33;8.55;;;4.80;;
20365;SDS011;10341;49.894;8.822;2023-10-08T17:25:52;9.25;;;4.32;;
20365;SDS011;10341;49.894;8.822;2023-10-08T17:31:12;7.95;;;4.32;;
20365;SDS011;10341;49.894;8.822;2023-10-08T17:36:32;6.57;;;3.57;;
20365;SDS011;10341;49.894;8.822;2023-10-08T17:41:52;7.68;;;3.80;;
20365;SDS011;10341;49.894;8.822;2023-10-08T17:47:12;6.28;;;3.58;;
20365;SDS011;10341;49.894;8.822;2023-10-08T17:52:32;5.63;;;3.40;;
20365;SDS011;10341;49.894;8.822;2023-10-08T17:57:53;6.97;;;3.58;;
20365;SDS011;10341;49.894;8.822;2023-10-08T18:03:12;7.00;;;3.53;;
20365;SDS011;10341;49.894;8.822;2023-10-08T18:08:31;6.53;;;3.95;;
20365;SDS011;10341;49.894;8.822;2023-10-08T18:13:55;8.00;;;4.78;;
20365;SDS011;10341;49.894;8.822;2023-10-08T18:19:15;7.20;;;3.63;;
20365;SDS011;10341;49.894;8.822;2023-10-08T18:24:34;5.53;;;3.35;;
20365;SDS011;10341;49.894;8.822;2023-10-08T18:29:55;6.22;;;3.53;;
20365;SDS011;10341;49.894;8.822;2023-10-08T18:35:17;6.78;;;3.40;;
20365;SDS011;10341;49.894;8.822;2023-10-08T18:40:37;6.25;;;3.78;;
20365;SDS011;10341;49.894;8.822;2023-10-08T18:45:56;6.13;;;3.95;;
20365;SDS011;10341;49.894;8.822;2023-10-08T18:51:15;5.47;;;3.60;;
20365;SDS011;10341;49.894;8.822;2023-10-08T18:56:38;5.45;;;3.70;;
20365;SDS011;10341;49.894;8.822;2023-10-08T19:01:58;8.77;;;4.20;;
20365;SDS011;10341;49.894;8.822;2023-10-08T19:07:17;5.87;;;4.13;;
20365;SDS011;10341;49.894;8.822;2023-10-08T19:12:36;9.38;;;4.70;;
20365;SDS011;10341;49.894;8.822;2023-10-08T19:17:56;8.38;;;3.97;;
20365;SDS011;10341;49.894;8.822;2023-10-08T19:23:23;7.93;;;4.18;;
20365;SDS011;10341;49.894;8.822;2023-10-08T19:28:43;7.10;;;4.85;;
20365;SDS011;10341;49.894;8.822;2023-10-08T19:34:02;8.68;;;4.35;;
20365;SDS011;10341;49.894;8.822;2023-10-08T19:39:21;6.90;;;4.32;;
20365;SDS011;10341;49.894;8.822;2023-10-08T19:44:41;6.32;;;3.80;;
20365;SDS011;10341;49.894;8.822;2023-10-08T19:50:00;6.40;;;3.97;;
20365;SDS011;10341;49.894;8.822;2023-10-08T19:55:19;6.22;;;3.80;;
20365;SDS011;10341;49.894;8.822;2023-10-08T20:00:38;4.22;;;3.33;;
20365;SDS011;10341;49.894;8.822;2023-10-08T20:11:17;4.38;;;3.30;;
20365;SDS011;10341;49.894;8.822;2023-10-08T20:16:37;4.93;;;2.50;;
20365;SDS011;10341;49.894;8.822;2023-10-08T20:21:57;4.25;;;2.47;;
20365;SDS011;10341;49.894;8.822;2023-10-08T20:27:16;3.80;;;2.60;;
20365;SDS011;10341;49.894;8.822;2023-10-08T20:32:37;3.72;;;2.38;;
20365;SDS011;10341;49.894;8.822;2023-10-08T20:37:57;3.92;;;2.67;;
20365;SDS011;10341;49.894;8.822;2023-10-08T20:43:17;5.00;;;3.05;;
20365;SDS011;10341;49.894;8.822;2023-10-08T20:48:36;3.60;;;2.83;;
20365;SDS011;10341;49.894;8.822;2023-10-08T20:53:56;4.35;;;3.00;;
20365;SDS011;10341;49.894;8.822;2023-10-08T20:59:15;5.53;;;3.30;;
20365;SDS011;10341;49.894;8.822;2023-10-08T21:04:34;5.80;;;3.80;;
20365;SDS011;10341;49.894;8.822;2023-10-08T21:15:14;5.25;;;3.42;;
20365;SDS011;10341;49.894;8.822;2023-10-08T21:20:36;4.03;;;3.25;;
20365;SDS011;10341;49.894;8.822;2023-10-08T21:25:58;4.70;;;3.03;;
20365;SDS011;10341;49.894;8.822;2023-10-08T21:31:17;5.03;;;3.17;;
20365;SDS011;10341;49.894;8.822;2023-10-08T21:36:36;6.18;;;3.15;;
20365;SDS011;10341;49.894;8.822;2023-10-08T21:41:56;4.28;;;2.97;;
20365;SDS011;10341;49.894;8.822;2023-10-08T21:47:16;3.55;;;2.75;;
20365;SDS011;10341;49.894;8.822;2023-10-08T21:52:35;3.67;;;2.65;;
20365;SDS011;10341;49.894;8.822;2023-10-08T21:57:56;4.78;;;3.05;;
20365;SDS011;10341;49.894;8.822;2023-10-08T22:03:15;8.35;;;4.30;;
20365;SDS011;10341;49.894;8.822;2023-10-08T22:08:34;7.32;;;4.28;;
20365;SDS011;10341;49.894;8.822;2023-10-08T22:13:56;4.80;;;3.55;;
20365;SDS011;10341;49.894;8.822;2023-10-08T22:19:15;5.38;;;3.63;;
20365;SDS011;10341;49.894;8.822;2023-10-08T22:24:35;7.93;;;4.60;;
20365;SDS011;10341;49.894;8.822;2023-10-08T22:29:59;6.25;;;3.85;;
20365;SDS011;10341;49.894;8.822;2023-10-08T22:35:21;6.30;;;3.33;;
20365;SDS011;10341;49.894;8.822;2023-10-08T22:40:44;4.23;;;3.10;;
20365;SDS011;10341;49.894;8.822;2023-10-08T22:46:29;3.58;;;2.90;;
20365;SDS011;10341;49.894;8.822;2023-10-08T22:51:52;3.50;;;2.60;;
20365;SDS011;10341;49.894;8.822;2023-10-08T22:57:14;5.65;;;2.90;;
20365;SDS011;10341;49.894;8.822;2023-10-08T23:02:34;5.43;;;2.95;;
20365;SDS011;10341;49.894;8.822;2023-10-08T23:07:53;3.80;;;2.75;;
20365;SDS011;10341;49.894;8.822;2023-10-08T23:13:12;5.43;;;2.60;;
20365;SDS011;10341;49.894;8.822;2023-10-08T23:18:32;4.38;;;2.75;;
20365;SDS011;10341;49.894;8.822;2023-10-08T23:29:11;3.53;;;2.60;;
20365;SDS011;10341;49.894;8.822;2023-10-08T23:34:31;5.88;;;3.28;;
20365;SDS011;10341;49.894;8.822;2023-10-08T23:39:51;9.23;;;4.25;;
20365;SDS011;10341;49.894;8.822;2023-10-08T23:45:13;7.00;;;4.00;;
20365;SDS011;10341;49.894;8.822;2023-10-08T23:50:32;6.38;;;3.67;;
